sensor_id;sensor_type;location;lat;lon;timestamp;temperature;humidity
12152;DHT22;6139;51.274;7.128;2024-01-06T00:00:17;6.10;99.90
12152;DHT22;6139;51.274;7.128;2024-01-06T00:01:18;6.10;99.90
12152;DHT22;6139;51.274;7.128;2024-01-06T00:02:22;6.10;99.90
12152;DHT22;6139;51.274;7.128;2024-01-06T00:03:23;6.10;99.90
12152;DHT22;6139;51.274;7.128;2024-01-06T00:04:25;6.10;99.90
12152;DHT22;6139;51.274;7.128;2024-01-06T00:05:25;6.10;99.90
12152;DHT22;6139;51.274;7.128;2024-01-06T00:06:27;6.10;99.90
12152;DHT22;6139;51.274;7.128;2024-01-06T00:07:28;6.10;99.90
12152;DHT22;6139;51.274;7.128;2024-01-06T00:08:30;6.10;99.90
12152;DHT22;6139;51.274;7.128;2024-01-06T00:09:31;6.20;99.90
12152;DHT22;6139;51.274;7.128;2024-01-06T00:10:33;6.10;99.90
12152;DHT22;6139;51.274;7.128;2024-01-06T00:11:34;6.10;99.90
12152;DHT22;6139;51.274;7.128;2024-01-06T00:12:36;6.10;99.90
12152;DHT22;6139;51.274;7.128;2024-01-06T00:13:37;6.10;99.90
12152;DHT22;6139;51.274;7.128;2024-01-06T00:14:39;6.10;99.90
12152;DHT22;6139;51.274;7.128;2024-01-06T00:15:42;6.10;99.90
12152;DHT22;6139;51.274;7.128;2024-01-06T00:16:44;6.10;99.90
12152;DHT22;6139;51.274;7.128;2024-01-06T00:17:47;6.00;99.90
12152;DHT22;6139;51.274;7.128;2024-01-06T00:18:49;6.00;99.90
12152;DHT22;6139;51.274;7.128;2024-01-06T00:19:50;6.00;99.90
12152;DHT22;6139;51.274;7.128;2024-01-06T00:20:51;6.00;99.90
12152;DHT22;6139;51.274;7.128;2024-01-06T00:21:53;6.00;99.90
12152;DHT22;6139;51.274;7.128;2024-01-06T00:22:54;6.00;99.90
12152;DHT22;6139;51.274;7.128;2024-01-06T00:23:57;6.00;99.90
12152;DHT22;6139;51.274;7.128;2024-01-06T00:24:58;6.00;99.90
12152;DHT22;6139;51.274;7.128;2024-01-06T00:26:00;6.00;99.90
12152;DHT22;6139;51.274;7.128;2024-01-06T00:27:01;6.00;99.90
12152;DHT22;6139;51.274;7.128;2024-01-06T00:28:03;6.10;99.90
12152;DHT22;6139;51.274;7.128;2024-01-06T00:29:04;6.10;99.90
12152;DHT22;6139;51.274;7.128;2024-01-06T00:30:07;6.10;99.90
12152;DHT22;6139;51.274;7.128;2024-01-06T00:31:09;6.10;99.90
12152;DHT22;6139;51.274;7.128;2024-01-06T00:32:11;6.10;99.90
12152;DHT22;6139;51.274;7.128;2024-01-06T00:33:13;6.10;99.90
12152;DHT22;6139;51.274;7.128;2024-01-06T00:34:15;6.10;99.90
12152;DHT22;6139;51.274;7.128;2024-01-06T00:35:16;6.10;99.90
12152;DHT22;6139;51.274;7.128;2024-01-06T00:36:18;6.10;99.90
12152;DHT22;6139;51.274;7.128;2024-01-06T00:37:19;6.10;99.90
12152;DHT22;6139;51.274;7.128;2024-01-06T00:38:21;6.10;99.90
12152;DHT22;6139;51.274;7.128;2024-01-06T00:39:22;6.10;99.90
12152;DHT22;6139;51.274;7.128;2024-01-06T00:40:24;6.10;99.90
12152;DHT22;6139;51.274;7.128;2024-01-06T00:41:25;6.10;99.90
12152;DHT22;6139;51.274;7.128;2024-01-06T00:42:26;6.10;99.90
12152;DHT22;6139;51.274;7.128;2024-01-06T00:43:27;6.10;99.90
12152;DHT22;6139;51.274;7.128;2024-01-06T00:44:29;6.20;99.90
12152;DHT22;6139;51.274;7.128;2024-01-06T00:45:30;6.10;99.90
12152;DHT22;6139;51.274;7.128;2024-01-06T00:46:32;6.20;99.90
12152;DHT22;6139;51.274;7.128;2024-01-06T00:47:33;6.20;99.90
12152;DHT22;6139;51.274;7.128;2024-01-06T00:48:36;6.20;99.90
12152;DHT22;6139;51.274;7.128;2024-01-06T00:49:37;6.10;99.90
12152;DHT22;6139;51.274;7.128;2024-01-06T00:50:39;6.10;99.90
12152;DHT22;6139;51.274;7.128;2024-01-06T00:51:40;6.10;99.90
12152;DHT22;6139;51.274;7.128;2024-01-06T00:52:41;6.10;99.90
12152;DHT22;6139;51.274;7.128;2024-01-06T00:53:43;6.20;99.90
12152;DHT22;6139;51.274;7.128;2024-01-06T00:54:44;6.20;99.90
12152;DHT22;6139;51.274;7.128;2024-01-06T00:55:47;6.20;99.90
12152;DHT22;6139;51.274;7.128;2024-01-06T00:56:48;6.10;99.90
12152;DHT22;6139;51.274;7.128;2024-01-06T00:57:50;6.10;99.90
12152;DHT22;6139;51.274;7.128;2024-01-06T00:58:51;6.10;99.90
12152;DHT22;6139;51.274;7.128;2024-01-06T00:59:53;6.10;99.90
12152;DHT22;6139;51.274;7.128;2024-01-06T01:00:53;6.20;99.90
12152;DHT22;6139;51.274;7.128;2024-01-06T01:01:55;6.20;99.90
12152;DHT22;6139;51.274;7.128;2024-01-06T01:02:56;6.20;99.90
12152;DHT22;6139;51.274;7.128;2024-01-06T01:04:00;6.20;99.90
12152;DHT22;6139;51.274;7.128;2024-01-06T01:05:01;6.10;99.90
12152;DHT22;6139;51.274;7.128;2024-01-06T01:06:03;6.10;99.90
12152;DHT22;6139;51.274;7.128;2024-01-06T01:07:04;6.10;99.90
12152;DHT22;6139;51.274;7.128;2024-01-06T01:08:06;6.10;99.90
12152;DHT22;6139;51.274;7.128;2024-01-06T01:09:08;6.10;99.90
12152;DHT22;6139;51.274;7.128;2024-01-06T01:10:11;6.10;99.90
12152;DHT22;6139;51.274;7.128;2024-01-06T01:11:12;6.10;99.90
12152;DHT22;6139;51.274;7.128;2024-01-06T01:12:13;6.10;99.90
12152;DHT22;6139;51.274;7.128;2024-01-06T01:13:15;6.10;99.90
12152;DHT22;6139;51.274;7.128;2024-01-06T01:14:16;6.10;99.90
12152;DHT22;6139;51.274;7.128;2024-01-06T01:15:19;6.10;99.90
12152;DHT22;6139;51.274;7.128;2024-01-06T01:16:20;6.10;99.90
12152;DHT22;6139;51.274;7.128;2024-01-06T01:17:22;6.10;99.90
12152;DHT22;6139;51.274;7.128;2024-01-06T01:18:23;6.10;99.90
12152;DHT22;6139;51.274;7.128;2024-01-06T01:19:26;6.10;99.90
12152;DHT22;6139;51.274;7.128;2024-01-06T01:20:27;6.10;99.90
12152;DHT22;6139;51.274;7.128;2024-01-06T01:21:29;6.10;99.90
12152;DHT22;6139;51.274;7.128;2024-01-06T01:22:30;6.00;99.90
12152;DHT22;6139;51.274;7.128;2024-01-06T01:23:32;6.00;99.90
12152;DHT22;6139;51.274;7.128;2024-01-06T01:24:33;6.00;99.90
12152;DHT22;6139;51.274;7.128;2024-01-06T01:25:34;6.00;99.90
12152;DHT22;6139;51.274;7.128;2024-01-06T01:26:36;6.00;99.90
12152;DHT22;6139;51.274;7.128;2024-01-06T01:27:37;6.10;99.90
12152;DHT22;6139;51.274;7.128;2024-01-06T01:28:39;6.10;99.90
12152;DHT22;6139;51.274;7.128;2024-01-06T01:29:39;6.10;99.90
12152;DHT22;6139;51.274;7.128;2024-01-06T01:30:41;6.10;99.90
12152;DHT22;6139;51.274;7.128;2024-01-06T01:31:42;6.10;99.90
12152;DHT22;6139;51.274;7.128;2024-01-06T01:32:44;6.00;99.90
12152;DHT22;6139;51.274;7.128;2024-01-06T01:33:45;6.00;99.90
12152;DHT22;6139;51.274;7.128;2024-01-06T01:34:48;6.00;99.90
12152;DHT22;6139;51.274;7.128;2024-01-06T01:35:49;6.00;99.90
12152;DHT22;6139;51.274;7.128;2024-01-06T01:36:51;6.00;99.90
12152;DHT22;6139;51.274;7.128;2024-01-06T01:37:52;6.00;99.90
12152;DHT22;6139;51.274;7.128;2024-01-06T01:38:54;6.10;99.90
12152;DHT22;6139;51.274;7.128;2024-01-06T01:39:55;6.10;99.90
12152;DHT22;6139;51.274;7.128;2024-01-06T01:40:56;6.10;99.90
12152;DHT22;6139;51.274;7.128;2024-01-06T01:42:00;6.10;99.90
12152;DHT22;6139;51.274;7.128;2024-01-06T01:43:01;6.00;99.90
12152;DHT22;6139;51.274;7.128;2024-01-06T01:44:03;6.00;99.90
12152;DHT22;6139;51.274;7.128;2024-01-06T01:45:04;6.00;99.90
12152;DHT22;6139;51.274;7.128;2024-01-06T01:46:06;6.00;99.90
12152;DHT22;6139;51.274;7.128;2024-01-06T01:47:07;6.10;99.90
12152;DHT22;6139;51.274;7.128;2024-01-06T01:48:08;6.00;99.90
12152;DHT22;6139;51.274;7.128;2024-01-06T01:49:10;6.00;99.90
12152;DHT22;6139;51.274;7.128;2024-01-06T01:50:14;6.00;99.90
12152;DHT22;6139;51.274;7.128;2024-01-06T01:51:15;6.10;99.90
12152;DHT22;6139;51.274;7.128;2024-01-06T01:52:18;6.10;99.90
12152;DHT22;6139;51.274;7.128;2024-01-06T01:53:20;6.10;99.90
12152;DHT22;6139;51.274;7.128;2024-01-06T01:54:21;6.10;99.90
12152;DHT22;6139;51.274;7.128;2024-01-06T01:55:23;6.10;99.90
12152;DHT22;6139;51.274;7.128;2024-01-06T01:56:24;6.20;99.90
12152;DHT22;6139;51.274;7.128;2024-01-06T01:57:27;6.10;99.90
12152;DHT22;6139;51.274;7.128;2024-01-06T01:58:28;6.20;99.90
12152;DHT22;6139;51.274;7.128;2024-01-06T01:59:30;6.20;99.90
12152;DHT22;6139;51.274;7.128;2024-01-06T02:00:31;6.10;99.90
12152;DHT22;6139;51.274;7.128;2024-01-06T02:01:34;6.10;99.90
12152;DHT22;6139;51.274;7.128;2024-01-06T02:02:35;6.20;99.90
12152;DHT22;6139;51.274;7.128;2024-01-06T02:03:37;6.10;99.90
12152;DHT22;6139;51.274;7.128;2024-01-06T02:04:38;6.10;99.90
12152;DHT22;6139;51.274;7.128;2024-01-06T02:05:41;6.10;99.90
12152;DHT22;6139;51.274;7.128;2024-01-06T02:06:42;6.20;99.90
12152;DHT22;6139;51.274;7.128;2024-01-06T02:07:45;6.20;99.90
12152;DHT22;6139;51.274;7.128;2024-01-06T02:08:46;6.20;99.90
12152;DHT22;6139;51.274;7.128;2024-01-06T02:09:48;6.30;99.90
12152;DHT22;6139;51.274;7.128;2024-01-06T02:10:49;6.20;99.90
12152;DHT22;6139;51.274;7.128;2024-01-06T02:11:51;6.20;99.90
12152;DHT22;6139;51.274;7.128;2024-01-06T02:12:52;6.20;99.90
12152;DHT22;6139;51.274;7.128;2024-01-06T02:13:53;6.20;99.90
12152;DHT22;6139;51.274;7.128;2024-01-06T02:14:54;6.20;99.90
12152;DHT22;6139;51.274;7.128;2024-01-06T02:15:56;6.20;99.90
12152;DHT22;6139;51.274;7.128;2024-01-06T02:16:57;6.10;99.90
12152;DHT22;6139;51.274;7.128;2024-01-06T02:17:59;6.10;99.90
12152;DHT22;6139;51.274;7.128;2024-01-06T02:19:00;6.10;99.90
12152;DHT22;6139;51.274;7.128;2024-01-06T02:20:02;6.10;99.90
12152;DHT22;6139;51.274;7.128;2024-01-06T02:21:06;6.10;99.90
12152;DHT22;6139;51.274;7.128;2024-01-06T02:22:09;6.10;99.90
12152;DHT22;6139;51.274;7.128;2024-01-06T02:23:10;6.10;99.90
12152;DHT22;6139;51.274;7.128;2024-01-06T02:24:11;6.20;99.90
12152;DHT22;6139;51.274;7.128;2024-01-06T02:25:13;6.20;99.90
12152;DHT22;6139;51.274;7.128;2024-01-06T02:26:15;6.20;99.90
12152;DHT22;6139;51.274;7.128;2024-01-06T02:27:17;6.10;99.90
12152;DHT22;6139;51.274;7.128;2024-01-06T02:28:18;6.10;99.90
12152;DHT22;6139;51.274;7.128;2024-01-06T02:29:20;6.10;99.90
12152;DHT22;6139;51.274;7.128;2024-01-06T02:30:21;6.10;99.90
12152;DHT22;6139;51.274;7.128;2024-01-06T02:31:23;6.10;99.90
12152;DHT22;6139;51.274;7.128;2024-01-06T02:32:24;6.10;99.90
12152;DHT22;6139;51.274;7.128;2024-01-06T02:33:26;6.00;99.90
12152;DHT22;6139;51.274;7.128;2024-01-06T02:34:27;6.10;99.90
12152;DHT22;6139;51.274;7.128;2024-01-06T02:35:29;6.00;99.90
12152;DHT22;6139;51.274;7.128;2024-01-06T02:36:30;6.00;99.90
12152;DHT22;6139;51.274;7.128;2024-01-06T02:37:33;6.10;99.90
12152;DHT22;6139;51.274;7.128;2024-01-06T02:38:34;6.10;99.90
12152;DHT22;6139;51.274;7.128;2024-01-06T02:39:36;6.10;99.90
12152;DHT22;6139;51.274;7.128;2024-01-06T02:40:37;6.10;99.90
12152;DHT22;6139;51.274;7.128;2024-01-06T02:41:38;6.10;99.90
12152;DHT22;6139;51.274;7.128;2024-01-06T02:42:40;6.00;99.90
12152;DHT22;6139;51.274;7.128;2024-01-06T02:43:41;6.10;99.90
12152;DHT22;6139;51.274;7.128;2024-01-06T02:44:43;6.00;99.90
12152;DHT22;6139;51.274;7.128;2024-01-06T02:45:44;6.00;99.90
12152;DHT22;6139;51.274;7.128;2024-01-06T02:46:47;6.00;99.90
12152;DHT22;6139;51.274;7.128;2024-01-06T02:47:48;6.00;99.90
12152;DHT22;6139;51.274;7.128;2024-01-06T02:48:50;6.00;99.90
12152;DHT22;6139;51.274;7.128;2024-01-06T02:49:51;6.00;99.90
12152;DHT22;6139;51.274;7.128;2024-01-06T02:50:53;6.00;99.90
12152;DHT22;6139;51.274;7.128;2024-01-06T02:51:54;6.00;99.90
12152;DHT22;6139;51.274;7.128;2024-01-06T02:52:57;6.00;99.90
12152;DHT22;6139;51.274;7.128;2024-01-06T02:53:58;6.00;99.90
12152;DHT22;6139;51.274;7.128;2024-01-06T02:55:00;6.00;99.90
12152;DHT22;6139;51.274;7.128;2024-01-06T02:56:01;6.10;99.90
12152;DHT22;6139;51.274;7.128;2024-01-06T02:57:03;6.00;99.90
12152;DHT22;6139;51.274;7.128;2024-01-06T02:58:04;6.10;99.90
12152;DHT22;6139;51.274;7.128;2024-01-06T02:59:06;6.10;99.90
12152;DHT22;6139;51.274;7.128;2024-01-06T03:00:08;6.10;99.90
12152;DHT22;6139;51.274;7.128;2024-01-06T03:01:11;6.10;99.90
12152;DHT22;6139;51.274;7.128;2024-01-06T03:02:12;6.10;99.90
12152;DHT22;6139;51.274;7.128;2024-01-06T03:03:14;6.20;99.90
12152;DHT22;6139;51.274;7.128;2024-01-06T03:04:15;6.20;99.90
12152;DHT22;6139;51.274;7.128;2024-01-06T03:05:17;6.10;99.90
12152;DHT22;6139;51.274;7.128;2024-01-06T03:06:18;6.10;99.90
12152;DHT22;6139;51.274;7.128;2024-01-06T03:07:20;6.20;99.90
12152;DHT22;6139;51.274;7.128;2024-01-06T03:08:23;6.20;99.90
12152;DHT22;6139;51.274;7.128;2024-01-06T03:09:24;6.20;99.90
12152;DHT22;6139;51.274;7.128;2024-01-06T03:10:26;6.20;99.90
12152;DHT22;6139;51.274;7.128;2024-01-06T03:11:27;6.10;99.90
12152;DHT22;6139;51.274;7.128;2024-01-06T03:12:29;6.10;99.90
12152;DHT22;6139;51.274;7.128;2024-01-06T03:13:30;6.20;99.90
12152;DHT22;6139;51.274;7.128;2024-01-06T03:14:31;6.20;99.90
12152;DHT22;6139;51.274;7.128;2024-01-06T03:15:33;6.10;99.90
12152;DHT22;6139;51.274;7.128;2024-01-06T03:16:34;6.20;99.90
12152;DHT22;6139;51.274;7.128;2024-01-06T03:17:36;6.10;99.90
12152;DHT22;6139;51.274;7.128;2024-01-06T03:18:36;6.20;99.90
12152;DHT22;6139;51.274;7.128;2024-01-06T03:19:39;6.20;99.90
12152;DHT22;6139;51.274;7.128;2024-01-06T03:20:40;6.20;99.90
12152;DHT22;6139;51.274;7.128;2024-01-06T03:21:42;6.20;99.90
12152;DHT22;6139;51.274;7.128;2024-01-06T03:22:43;6.20;99.90
12152;DHT22;6139;51.274;7.128;2024-01-06T03:23:45;6.20;99.90
12152;DHT22;6139;51.274;7.128;2024-01-06T03:24:47;6.20;99.90
12152;DHT22;6139;51.274;7.128;2024-01-06T03:25:48;6.20;99.90
12152;DHT22;6139;51.274;7.128;2024-01-06T03:26:50;6.20;99.90
12152;DHT22;6139;51.274;7.128;2024-01-06T03:27:51;6.20;99.90
12152;DHT22;6139;51.274;7.128;2024-01-06T03:28:54;6.20;99.90
12152;DHT22;6139;51.274;7.128;2024-01-06T03:29:55;6.20;99.90
12152;DHT22;6139;51.274;7.128;2024-01-06T03:30:57;6.10;99.90
12152;DHT22;6139;51.274;7.128;2024-01-06T03:31:58;6.20;99.90
12152;DHT22;6139;51.274;7.128;2024-01-06T03:33:00;6.20;99.90
12152;DHT22;6139;51.274;7.128;2024-01-06T03:34:01;6.20;99.90
12152;DHT22;6139;51.274;7.128;2024-01-06T03:35:04;6.20;99.90
12152;DHT22;6139;51.274;7.128;2024-01-06T03:36:07;6.20;99.90
12152;DHT22;6139;51.274;7.128;2024-01-06T03:37:09;6.10;99.90
12152;DHT22;6139;51.274;7.128;2024-01-06T03:38:10;6.20;99.90
12152;DHT22;6139;51.274;7.128;2024-01-06T03:39:13;6.10;99.90
12152;DHT22;6139;51.274;7.128;2024-01-06T03:40:14;6.10;99.90
12152;DHT22;6139;51.274;7.128;2024-01-06T03:41:16;6.10;99.90
12152;DHT22;6139;51.274;7.128;2024-01-06T03:42:17;6.10;99.90
12152;DHT22;6139;51.274;7.128;2024-01-06T03:43:19;6.10;99.90
12152;DHT22;6139;51.274;7.128;2024-01-06T03:44:20;6.10;99.90
12152;DHT22;6139;51.274;7.128;2024-01-06T03:45:22;6.10;99.90
12152;DHT22;6139;51.274;7.128;2024-01-06T03:46:23;6.10;99.90
12152;DHT22;6139;51.274;7.128;2024-01-06T03:47:25;6.10;99.90
12152;DHT22;6139;51.274;7.128;2024-01-06T03:48:26;6.10;99.90
12152;DHT22;6139;51.274;7.128;2024-01-06T03:49:28;6.10;99.90
12152;DHT22;6139;51.274;7.128;2024-01-06T03:50:29;6.10;99.90
12152;DHT22;6139;51.274;7.128;2024-01-06T03:51:31;6.10;99.90
12152;DHT22;6139;51.274;7.128;2024-01-06T03:52:32;6.10;99.90
12152;DHT22;6139;51.274;7.128;2024-01-06T03:53:34;6.10;99.90
12152;DHT22;6139;51.274;7.128;2024-01-06T03:54:36;6.10;99.90
12152;DHT22;6139;51.274;7.128;2024-01-06T03:55:38;6.10;99.90
12152;DHT22;6139;51.274;7.128;2024-01-06T03:56:39;6.10;99.90
12152;DHT22;6139;51.274;7.128;2024-01-06T03:57:41;6.10;99.90
12152;DHT22;6139;51.274;7.128;2024-01-06T03:58:42;6.10;99.90
12152;DHT22;6139;51.274;7.128;2024-01-06T03:59:43;6.10;99.90
12152;DHT22;6139;51.274;7.128;2024-01-06T04:00:45;6.10;99.90
12152;DHT22;6139;51.274;7.128;2024-01-06T04:01:46;6.10;99.90
12152;DHT22;6139;51.274;7.128;2024-01-06T04:02:47;6.10;99.90
12152;DHT22;6139;51.274;7.128;2024-01-06T04:03:49;6.10;99.90
12152;DHT22;6139;51.274;7.128;2024-01-06T04:04:50;6.20;99.90
12152;DHT22;6139;51.274;7.128;2024-01-06T04:05:52;6.20;99.90
12152;DHT22;6139;51.274;7.128;2024-01-06T04:06:53;6.20;99.90
12152;DHT22;6139;51.274;7.128;2024-01-06T04:07:55;6.20;99.90
12152;DHT22;6139;51.274;7.128;2024-01-06T04:08:56;6.20;99.90
12152;DHT22;6139;51.274;7.128;2024-01-06T04:09:59;6.20;99.90
12152;DHT22;6139;51.274;7.128;2024-01-06T04:11:00;6.20;99.90
12152;DHT22;6139;51.274;7.128;2024-01-06T04:12:02;6.20;99.90
12152;DHT22;6139;51.274;7.128;2024-01-06T04:13:04;6.20;99.90
12152;DHT22;6139;51.274;7.128;2024-01-06T04:14:06;6.20;99.90
12152;DHT22;6139;51.274;7.128;2024-01-06T04:15:07;6.20;99.90
12152;DHT22;6139;51.274;7.128;2024-01-06T04:16:08;6.20;99.90
12152;DHT22;6139;51.274;7.128;2024-01-06T04:17:10;6.20;99.90
12152;DHT22;6139;51.274;7.128;2024-01-06T04:18:11;6.20;99.90
12152;DHT22;6139;51.274;7.128;2024-01-06T04:19:13;6.20;99.90
12152;DHT22;6139;51.274;7.128;2024-01-06T04:20:15;6.20;99.90
12152;DHT22;6139;51.274;7.128;2024-01-06T04:21:17;6.20;99.90
12152;DHT22;6139;51.274;7.128;2024-01-06T04:22:18;6.10;99.90
12152;DHT22;6139;51.274;7.128;2024-01-06T04:23:20;6.10;99.90
12152;DHT22;6139;51.274;7.128;2024-01-06T04:24:21;6.10;99.90
12152;DHT22;6139;51.274;7.128;2024-01-06T04:25:25;6.10;99.90
12152;DHT22;6139;51.274;7.128;2024-01-06T04:26:26;6.20;99.90
12152;DHT22;6139;51.274;7.128;2024-01-06T04:27:28;6.10;99.90
12152;DHT22;6139;51.274;7.128;2024-01-06T04:28:29;6.20;99.90
12152;DHT22;6139;51.274;7.128;2024-01-06T04:29:31;6.10;99.90
12152;DHT22;6139;51.274;7.128;2024-01-06T04:30:32;6.10;99.90
12152;DHT22;6139;51.274;7.128;2024-01-06T04:31:34;6.10;99.90
12152;DHT22;6139;51.274;7.128;2024-01-06T04:32:34;6.10;99.90
12152;DHT22;6139;51.274;7.128;2024-01-06T04:33:36;6.20;99.90
12152;DHT22;6139;51.274;7.128;2024-01-06T04:34:38;6.10;99.90
12152;DHT22;6139;51.274;7.128;2024-01-06T04:35:40;6.10;99.90
12152;DHT22;6139;51.274;7.128;2024-01-06T04:36:41;6.10;99.90
12152;DHT22;6139;51.274;7.128;2024-01-06T04:37:43;6.10;99.90
12152;DHT22;6139;51.274;7.128;2024-01-06T04:38:44;6.10;99.90
12152;DHT22;6139;51.274;7.128;2024-01-06T04:39:46;6.10;99.90
12152;DHT22;6139;51.274;7.128;2024-01-06T04:40:48;6.10;99.90
12152;DHT22;6139;51.274;7.128;2024-01-06T04:41:49;6.00;99.90
12152;DHT22;6139;51.274;7.128;2024-01-06T04:42:51;5.90;99.90
12152;DHT22;6139;51.274;7.128;2024-01-06T04:43:52;5.90;99.90
12152;DHT22;6139;51.274;7.128;2024-01-06T04:44:54;5.80;99.90
12152;DHT22;6139;51.274;7.128;2024-01-06T04:45:55;5.80;99.90
12152;DHT22;6139;51.274;7.128;2024-01-06T04:46:58;5.80;99.90
12152;DHT22;6139;51.274;7.128;2024-01-06T04:47:59;5.70;99.90
12152;DHT22;6139;51.274;7.128;2024-01-06T04:49:00;5.80;99.90
12152;DHT22;6139;51.274;7.128;2024-01-06T04:50:02;5.80;99.90
12152;DHT22;6139;51.274;7.128;2024-01-06T04:51:04;5.80;99.90
12152;DHT22;6139;51.274;7.128;2024-01-06T04:52:05;5.70;99.90
12152;DHT22;6139;51.274;7.128;2024-01-06T04:53:08;5.70;99.90
12152;DHT22;6139;51.274;7.128;2024-01-06T04:54:09;5.70;99.90
12152;DHT22;6139;51.274;7.128;2024-01-06T04:55:10;5.60;99.90
12152;DHT22;6139;51.274;7.128;2024-01-06T04:56:13;5.60;99.90
12152;DHT22;6139;51.274;7.128;2024-01-06T04:57:14;5.60;99.90
12152;DHT22;6139;51.274;7.128;2024-01-06T04:58:16;5.60;99.90
12152;DHT22;6139;51.274;7.128;2024-01-06T04:59:17;5.60;99.90
12152;DHT22;6139;51.274;7.128;2024-01-06T05:00:18;5.60;99.90
12152;DHT22;6139;51.274;7.128;2024-01-06T05:01:21;5.60;99.90
12152;DHT22;6139;51.274;7.128;2024-01-06T05:02:22;5.50;99.90
12152;DHT22;6139;51.274;7.128;2024-01-06T05:03:24;5.60;99.90
12152;DHT22;6139;51.274;7.128;2024-01-06T05:04:25;5.50;72.90
12152;DHT22;6139;51.274;7.128;2024-01-06T05:05:27;5.50;67.00
12152;DHT22;6139;51.274;7.128;2024-01-06T05:06:28;5.50;65.30
12152;DHT22;6139;51.274;7.128;2024-01-06T05:07:30;5.50;50.10
12152;DHT22;6139;51.274;7.128;2024-01-06T05:08:31;5.50;1.00
12152;DHT22;6139;51.274;7.128;2024-01-06T05:09:33;5.40;1.00
12152;DHT22;6139;51.274;7.128;2024-01-06T05:10:34;5.40;1.00
12152;DHT22;6139;51.274;7.128;2024-01-06T05:11:37;5.40;1.00
12152;DHT22;6139;51.274;7.128;2024-01-06T05:12:38;5.30;1.00
12152;DHT22;6139;51.274;7.128;2024-01-06T05:13:40;5.30;1.00
12152;DHT22;6139;51.274;7.128;2024-01-06T05:14:41;5.30;1.00
12152;DHT22;6139;51.274;7.128;2024-01-06T05:15:42;5.30;28.70
12152;DHT22;6139;51.274;7.128;2024-01-06T05:16:44;5.30;38.60
12152;DHT22;6139;51.274;7.128;2024-01-06T05:17:45;5.30;37.50
12152;DHT22;6139;51.274;7.128;2024-01-06T05:18:47;5.40;90.00
12152;DHT22;6139;51.274;7.128;2024-01-06T05:19:48;5.30;1.00
12152;DHT22;6139;51.274;7.128;2024-01-06T05:20:50;5.30;1.00
12152;DHT22;6139;51.274;7.128;2024-01-06T05:21:51;5.40;1.00
12152;DHT22;6139;51.274;7.128;2024-01-06T05:22:53;5.40;1.00
12152;DHT22;6139;51.274;7.128;2024-01-06T05:23:55;5.40;1.00
12152;DHT22;6139;51.274;7.128;2024-01-06T05:24:57;5.40;1.00
12152;DHT22;6139;51.274;7.128;2024-01-06T05:25:58;5.40;1.00
12152;DHT22;6139;51.274;7.128;2024-01-06T05:27:01;5.40;1.00
12152;DHT22;6139;51.274;7.128;2024-01-06T05:28:02;5.40;1.00
12152;DHT22;6139;51.274;7.128;2024-01-06T05:29:04;5.30;1.00
12152;DHT22;6139;51.274;7.128;2024-01-06T05:30:06;5.30;1.00
12152;DHT22;6139;51.274;7.128;2024-01-06T05:31:09;5.20;1.00
12152;DHT22;6139;51.274;7.128;2024-01-06T05:32:10;5.20;1.00
12152;DHT22;6139;51.274;7.128;2024-01-06T05:33:12;5.30;1.00
12152;DHT22;6139;51.274;7.128;2024-01-06T05:34:13;5.30;1.00
12152;DHT22;6139;51.274;7.128;2024-01-06T05:35:16;5.30;1.00
12152;DHT22;6139;51.274;7.128;2024-01-06T05:36:18;5.20;1.00
12152;DHT22;6139;51.274;7.128;2024-01-06T05:37:20;5.20;1.00
12152;DHT22;6139;51.274;7.128;2024-01-06T05:38:22;5.30;1.00
12152;DHT22;6139;51.274;7.128;2024-01-06T05:39:24;5.20;1.00
12152;DHT22;6139;51.274;7.128;2024-01-06T05:40:25;5.30;1.00
12152;DHT22;6139;51.274;7.128;2024-01-06T05:41:27;5.30;1.00
12152;DHT22;6139;51.274;7.128;2024-01-06T05:42:30;5.30;1.00
12152;DHT22;6139;51.274;7.128;2024-01-06T05:43:31;5.30;1.00
12152;DHT22;6139;51.274;7.128;2024-01-06T05:44:35;5.30;1.00
12152;DHT22;6139;51.274;7.128;2024-01-06T05:45:36;5.20;1.00
12152;DHT22;6139;51.274;7.128;2024-01-06T05:46:42;5.30;1.00
12152;DHT22;6139;51.274;7.128;2024-01-06T05:47:43;5.20;1.00
12152;DHT22;6139;51.274;7.128;2024-01-06T05:48:45;5.20;1.00
12152;DHT22;6139;51.274;7.128;2024-01-06T05:49:46;5.20;1.00
12152;DHT22;6139;51.274;7.128;2024-01-06T05:50:48;5.20;1.00
12152;DHT22;6139;51.274;7.128;2024-01-06T05:51:49;5.10;1.00
12152;DHT22;6139;51.274;7.128;2024-01-06T05:52:51;5.10;1.00
12152;DHT22;6139;51.274;7.128;2024-01-06T05:53:52;5.10;1.00
12152;DHT22;6139;51.274;7.128;2024-01-06T05:54:55;5.00;1.00
12152;DHT22;6139;51.274;7.128;2024-01-06T05:55:56;5.00;1.00
12152;DHT22;6139;51.274;7.128;2024-01-06T05:56:58;5.00;1.00
12152;DHT22;6139;51.274;7.128;2024-01-06T05:58:01;5.00;1.00
12152;DHT22;6139;51.274;7.128;2024-01-06T05:59:03;5.00;1.00
12152;DHT22;6139;51.274;7.128;2024-01-06T06:00:08;5.00;1.00
12152;DHT22;6139;51.274;7.128;2024-01-06T06:01:13;5.00;1.00
12152;DHT22;6139;51.274;7.128;2024-01-06T06:02:14;5.00;1.00
12152;DHT22;6139;51.274;7.128;2024-01-06T06:03:16;5.00;1.00
12152;DHT22;6139;51.274;7.128;2024-01-06T06:04:17;5.00;1.00
12152;DHT22;6139;51.274;7.128;2024-01-06T06:05:19;5.00;1.00
12152;DHT22;6139;51.274;7.128;2024-01-06T06:06:20;5.00;1.00
12152;DHT22;6139;51.274;7.128;2024-01-06T06:07:22;5.00;1.00
12152;DHT22;6139;51.274;7.128;2024-01-06T06:08:23;5.00;1.00
12152;DHT22;6139;51.274;7.128;2024-01-06T06:09:25;5.00;1.00
12152;DHT22;6139;51.274;7.128;2024-01-06T06:10:29;5.00;1.00
12152;DHT22;6139;51.274;7.128;2024-01-06T06:11:41;5.00;1.00
12152;DHT22;6139;51.274;7.128;2024-01-06T06:12:42;5.00;1.00
12152;DHT22;6139;51.274;7.128;2024-01-06T06:13:45;5.00;1.00
12152;DHT22;6139;51.274;7.128;2024-01-06T06:14:46;4.90;1.00
12152;DHT22;6139;51.274;7.128;2024-01-06T06:15:48;4.90;1.00
12152;DHT22;6139;51.274;7.128;2024-01-06T06:16:49;4.90;1.00
12152;DHT22;6139;51.274;7.128;2024-01-06T06:17:51;4.90;1.00
12152;DHT22;6139;51.274;7.128;2024-01-06T06:18:52;4.90;1.00
12152;DHT22;6139;51.274;7.128;2024-01-06T06:19:54;4.90;1.00
12152;DHT22;6139;51.274;7.128;2024-01-06T06:20:55;4.90;1.00
12152;DHT22;6139;51.274;7.128;2024-01-06T06:21:58;4.90;1.00
12152;DHT22;6139;51.274;7.128;2024-01-06T06:22:59;4.90;1.00
12152;DHT22;6139;51.274;7.128;2024-01-06T06:24:01;4.90;1.00
12152;DHT22;6139;51.274;7.128;2024-01-06T06:25:02;4.90;1.00
12152;DHT22;6139;51.274;7.128;2024-01-06T06:26:05;4.90;1.00
12152;DHT22;6139;51.274;7.128;2024-01-06T06:27:06;5.00;1.00
12152;DHT22;6139;51.274;7.128;2024-01-06T06:28:08;4.90;1.00
12152;DHT22;6139;51.274;7.128;2024-01-06T06:29:10;4.90;1.00
12152;DHT22;6139;51.274;7.128;2024-01-06T06:30:13;4.90;1.00
12152;DHT22;6139;51.274;7.128;2024-01-06T06:31:14;5.00;1.00
12152;DHT22;6139;51.274;7.128;2024-01-06T06:32:16;4.90;1.00
12152;DHT22;6139;51.274;7.128;2024-01-06T06:33:17;4.90;1.00
12152;DHT22;6139;51.274;7.128;2024-01-06T06:34:19;4.90;1.00
12152;DHT22;6139;51.274;7.128;2024-01-06T06:35:20;5.00;1.00
12152;DHT22;6139;51.274;7.128;2024-01-06T06:36:22;5.00;1.00
12152;DHT22;6139;51.274;7.128;2024-01-06T06:37:23;4.90;1.00
12152;DHT22;6139;51.274;7.128;2024-01-06T06:38:25;4.90;1.00
12152;DHT22;6139;51.274;7.128;2024-01-06T06:39:26;4.90;1.00
12152;DHT22;6139;51.274;7.128;2024-01-06T06:40:29;4.90;1.00
12152;DHT22;6139;51.274;7.128;2024-01-06T06:41:30;4.90;1.00
12152;DHT22;6139;51.274;7.128;2024-01-06T06:42:32;5.00;1.00
12152;DHT22;6139;51.274;7.128;2024-01-06T06:43:33;5.00;1.00